lundi 2 juin 2014

ALERTE SPOTTING 02/06/14 (MàJ 05h00)

73H D-ABMC Air Berlin
   AB8154/AB8155 07h55/08h45

320 F-GHQE Air Corsica (blanc avec titre)
   XK4511/XK4500   07h35/08h30

143 D-AWBA WDL
   A5650/?  08h05/?

73H Air Europa EC-JHK (couleur Skyteam)
   UX1027/UX1028  09h25/10h25

320 EC-JZQ Vueling (stickers Thanks)
   VY8024/VY8015  10h15/10h50
  VY8014/  14h40

142 D-AWUE WDL
   A58202/AF7336  11h20/11h55
 AF7341/A58203  19h15/19h45

73H CN-RGN RAM (sticker 50th 737)
   dpt At663 13h15
 AT664/AT629  21h00/22h00

320 CS-TNP TAP (couleur Star Alliance)
   TP442/TP441  15h25/16h10

Manque les prévisions de certains AB/AH/AZ/BA/BE/IB/KM/TP/TU

*** Horaires en Heure Locale ***
Prévisions matinales soumises à modifications de dernières minutes.

Voir le log du mois pour la version 'définitive' de la journée: 
 http://www.airkalo.com/ORLYAVIATION/Logdumois.html

le TAF de la journée:


METAR: LFPO 020230Z 30003KT CAVOK 13/10 Q1020 NOSIG=
TAF LONG: LFPO 012300Z 0200/0306 30005KT CAVOK BECMG 0201/0203 6000 SCT005
PROB30 TEMPO 0203/0207 4500 BR BKN005 BECMG 0207/0209 SCT025 BKN100
BECMG 0216/0218 CAVOK=